sensor_id;sensor_type;location;lat;lon;timestamp;P1;durP1;ratioP1;P2;durP2;ratioP2
60169;SDS011;46042;49.444;6.862;2024-01-15T00:00:15;13.67;;;6.47;;
60169;SDS011;46042;49.444;6.862;2024-01-15T00:02:43;23.80;;;7.73;;
60169;SDS011;46042;49.444;6.862;2024-01-15T00:05:10;18.27;;;7.80;;
60169;SDS011;46042;49.444;6.862;2024-01-15T00:07:36;23.73;;;7.43;;
60169;SDS011;46042;49.444;6.862;2024-01-15T00:10:03;15.77;;;7.43;;
60169;SDS011;46042;49.444;6.862;2024-01-15T00:12:30;15.47;;;6.67;;
60169;SDS011;46042;49.444;6.862;2024-01-15T00:14:58;22.00;;;10.70;;
60169;SDS011;46042;49.444;6.862;2024-01-15T00:17:24;25.10;;;9.37;;
60169;SDS011;46042;49.444;6.862;2024-01-15T00:19:51;20.90;;;6.10;;
60169;SDS011;46042;49.444;6.862;2024-01-15T00:22:18;20.57;;;8.33;;
60169;SDS011;46042;49.444;6.862;2024-01-15T00:24:46;18.07;;;7.83;;
60169;SDS011;46042;49.444;6.862;2024-01-15T00:27:13;25.93;;;9.80;;
60169;SDS011;46042;49.444;6.862;2024-01-15T00:29:39;22.80;;;8.53;;
60169;SDS011;46042;49.444;6.862;2024-01-15T00:32:06;15.90;;;6.63;;
60169;SDS011;46042;49.444;6.862;2024-01-15T00:34:33;18.20;;;7.77;;
60169;SDS011;46042;49.444;6.862;2024-01-15T00:37:00;25.07;;;9.77;;
60169;SDS011;46042;49.444;6.862;2024-01-15T00:39:27;19.93;;;7.83;;
60169;SDS011;46042;49.444;6.862;2024-01-15T00:41:54;17.73;;;5.93;;
60169;SDS011;46042;49.444;6.862;2024-01-15T00:44:20;22.20;;;7.27;;
60169;SDS011;46042;49.444;6.862;2024-01-15T00:46:47;18.10;;;8.57;;
60169;SDS011;46042;49.444;6.862;2024-01-15T00:49:14;20.47;;;6.60;;
60169;SDS011;46042;49.444;6.862;2024-01-15T00:51:42;13.23;;;7.83;;
60169;SDS011;46042;49.444;6.862;2024-01-15T00:54:09;24.10;;;10.40;;
60169;SDS011;46042;49.444;6.862;2024-01-15T00:56:36;30.90;;;12.13;;
60169;SDS011;46042;49.444;6.862;2024-01-15T00:59:03;20.47;;;7.77;;
60169;SDS011;46042;49.444;6.862;2024-01-15T01:01:30;16.20;;;6.90;;
60169;SDS011;46042;49.444;6.862;2024-01-15T01:03:57;14.20;;;7.20;;
60169;SDS011;46042;49.444;6.862;2024-01-15T01:06:24;19.03;;;7.63;;
60169;SDS011;46042;49.444;6.862;2024-01-15T01:08:51;25.13;;;8.60;;
60169;SDS011;46042;49.444;6.862;2024-01-15T01:11:18;20.27;;;7.63;;
60169;SDS011;46042;49.444;6.862;2024-01-15T01:13:45;13.67;;;7.30;;
60169;SDS011;46042;49.444;6.862;2024-01-15T01:16:12;25.33;;;8.67;;
60169;SDS011;46042;49.444;6.862;2024-01-15T01:18:38;17.93;;;6.17;;
60169;SDS011;46042;49.444;6.862;2024-01-15T01:21:06;17.63;;;8.07;;
60169;SDS011;46042;49.444;6.862;2024-01-15T01:23:33;18.03;;;6.87;;
60169;SDS011;46042;49.444;6.862;2024-01-15T01:25:59;21.83;;;8.30;;
60169;SDS011;46042;49.444;6.862;2024-01-15T01:28:27;15.90;;;6.37;;
60169;SDS011;46042;49.444;6.862;2024-01-15T01:30:54;12.30;;;6.70;;
60169;SDS011;46042;49.444;6.862;2024-01-15T01:33:21;23.07;;;7.03;;
60169;SDS011;46042;49.444;6.862;2024-01-15T01:35:48;16.27;;;7.20;;
60169;SDS011;46042;49.444;6.862;2024-01-15T01:38:15;19.93;;;7.13;;
60169;SDS011;46042;49.444;6.862;2024-01-15T01:40:42;28.57;;;9.13;;
60169;SDS011;46042;49.444;6.862;2024-01-15T01:43:09;27.93;;;9.43;;
60169;SDS011;46042;49.444;6.862;2024-01-15T01:45:37;23.93;;;8.40;;
60169;SDS011;46042;49.444;6.862;2024-01-15T01:48:05;15.27;;;6.77;;
60169;SDS011;46042;49.444;6.862;2024-01-15T01:50:32;20.43;;;8.20;;
60169;SDS011;46042;49.444;6.862;2024-01-15T01:53:00;18.67;;;8.40;;
60169;SDS011;46042;49.444;6.862;2024-01-15T01:55:30;16.17;;;6.55;;
60169;SDS011;46042;49.444;6.862;2024-01-15T01:57:59;27.97;;;10.27;;
60169;SDS011;46042;49.444;6.862;2024-01-15T02:00:27;29.80;;;9.17;;
60169;SDS011;46042;49.444;6.862;2024-01-15T02:02:54;18.07;;;7.50;;
60169;SDS011;46042;49.444;6.862;2024-01-15T02:05:21;31.13;;;9.23;;
60169;SDS011;46042;49.444;6.862;2024-01-15T02:07:48;20.07;;;7.03;;
60169;SDS011;46042;49.444;6.862;2024-01-15T02:10:15;20.27;;;7.97;;
60169;SDS011;46042;49.444;6.862;2024-01-15T02:12:42;12.13;;;6.87;;
60169;SDS011;46042;49.444;6.862;2024-01-15T02:15:10;21.93;;;8.03;;
60169;SDS011;46042;49.444;6.862;2024-01-15T02:17:56;19.17;;;7.30;;
60169;SDS011;46042;49.444;6.862;2024-01-15T02:20:25;23.33;;;8.60;;
60169;SDS011;46042;49.444;6.862;2024-01-15T02:22:52;13.87;;;6.57;;
60169;SDS011;46042;49.444;6.862;2024-01-15T02:25:19;21.83;;;7.97;;
60169;SDS011;46042;49.444;6.862;2024-01-15T02:27:46;17.23;;;7.20;;
60169;SDS011;46042;49.444;6.862;2024-01-15T02:30:14;18.37;;;8.20;;
60169;SDS011;46042;49.444;6.862;2024-01-15T02:32:42;16.33;;;7.23;;
60169;SDS011;46042;49.444;6.862;2024-01-15T02:35:09;20.07;;;8.30;;
60169;SDS011;46042;49.444;6.862;2024-01-15T02:37:36;20.57;;;6.60;;
60169;SDS011;46042;49.444;6.862;2024-01-15T02:40:02;22.80;;;8.33;;
60169;SDS011;46042;49.444;6.862;2024-01-15T02:42:29;18.83;;;7.83;;
60169;SDS011;46042;49.444;6.862;2024-01-15T02:44:56;18.87;;;8.03;;
60169;SDS011;46042;49.444;6.862;2024-01-15T02:47:23;22.23;;;9.60;;
60169;SDS011;46042;49.444;6.862;2024-01-15T02:49:50;24.10;;;8.57;;
60169;SDS011;46042;49.444;6.862;2024-01-15T02:52:17;19.90;;;8.40;;
60169;SDS011;46042;49.444;6.862;2024-01-15T02:54:44;22.63;;;8.23;;
60169;SDS011;46042;49.444;6.862;2024-01-15T02:57:11;21.07;;;8.33;;
60169;SDS011;46042;49.444;6.862;2024-01-15T02:59:38;20.37;;;6.87;;
60169;SDS011;46042;49.444;6.862;2024-01-15T03:02:04;28.60;;;8.73;;
60169;SDS011;46042;49.444;6.862;2024-01-15T03:04:31;20.20;;;8.93;;
60169;SDS011;46042;49.444;6.862;2024-01-15T03:06:58;21.40;;;8.00;;
60169;SDS011;46042;49.444;6.862;2024-01-15T03:09:25;20.00;;;8.33;;
60169;SDS011;46042;49.444;6.862;2024-01-15T03:11:52;21.80;;;8.07;;
60169;SDS011;46042;49.444;6.862;2024-01-15T03:14:19;12.10;;;6.60;;
60169;SDS011;46042;49.444;6.862;2024-01-15T03:16:46;16.93;;;7.87;;
60169;SDS011;46042;49.444;6.862;2024-01-15T03:19:13;17.17;;;8.33;;
60169;SDS011;46042;49.444;6.862;2024-01-15T03:21:40;26.10;;;8.10;;
60169;SDS011;46042;49.444;6.862;2024-01-15T03:24:07;15.87;;;7.73;;
60169;SDS011;46042;49.444;6.862;2024-01-15T03:26:34;19.60;;;8.13;;
60169;SDS011;46042;49.444;6.862;2024-01-15T03:29:01;26.67;;;9.17;;
60169;SDS011;46042;49.444;6.862;2024-01-15T03:31:27;17.90;;;7.23;;
60169;SDS011;46042;49.444;6.862;2024-01-15T03:33:55;18.33;;;7.77;;
60169;SDS011;46042;49.444;6.862;2024-01-15T03:36:22;20.47;;;8.33;;
60169;SDS011;46042;49.444;6.862;2024-01-15T03:38:49;16.27;;;7.33;;
60169;SDS011;46042;49.444;6.862;2024-01-15T03:41:15;15.87;;;8.57;;
60169;SDS011;46042;49.444;6.862;2024-01-15T03:43:42;17.90;;;7.37;;
60169;SDS011;46042;49.444;6.862;2024-01-15T03:46:09;23.00;;;7.23;;
60169;SDS011;46042;49.444;6.862;2024-01-15T03:48:36;17.03;;;8.20;;
60169;SDS011;46042;49.444;6.862;2024-01-15T03:51:03;25.77;;;9.70;;
60169;SDS011;46042;49.444;6.862;2024-01-15T03:53:30;24.90;;;9.00;;
60169;SDS011;46042;49.444;6.862;2024-01-15T03:55:57;17.07;;;7.43;;
60169;SDS011;46042;49.444;6.862;2024-01-15T03:58:24;23.87;;;9.37;;
60169;SDS011;46042;49.444;6.862;2024-01-15T04:00:50;26.13;;;8.33;;
60169;SDS011;46042;49.444;6.862;2024-01-15T04:03:17;19.67;;;8.53;;
60169;SDS011;46042;49.444;6.862;2024-01-15T04:05:44;23.40;;;10.70;;
60169;SDS011;46042;49.444;6.862;2024-01-15T04:08:11;16.00;;;7.53;;
60169;SDS011;46042;49.444;6.862;2024-01-15T04:10:38;27.63;;;8.40;;
60169;SDS011;46042;49.444;6.862;2024-01-15T04:13:05;28.80;;;11.13;;
60169;SDS011;46042;49.444;6.862;2024-01-15T04:15:31;22.23;;;7.97;;
60169;SDS011;46042;49.444;6.862;2024-01-15T04:17:58;18.07;;;8.13;;
60169;SDS011;46042;49.444;6.862;2024-01-15T04:20:25;24.03;;;10.93;;
60169;SDS011;46042;49.444;6.862;2024-01-15T04:22:52;18.70;;;8.70;;
60169;SDS011;46042;49.444;6.862;2024-01-15T04:25:19;26.53;;;9.77;;
60169;SDS011;46042;49.444;6.862;2024-01-15T04:27:46;27.63;;;9.87;;
60169;SDS011;46042;49.444;6.862;2024-01-15T04:30:13;20.03;;;7.20;;
60169;SDS011;46042;49.444;6.862;2024-01-15T04:32:40;21.43;;;8.93;;
60169;SDS011;46042;49.444;6.862;2024-01-15T04:35:07;20.27;;;7.47;;
60169;SDS011;46042;49.444;6.862;2024-01-15T04:37:34;20.97;;;8.67;;
60169;SDS011;46042;49.444;6.862;2024-01-15T04:40:01;20.77;;;8.13;;
60169;SDS011;46042;49.444;6.862;2024-01-15T04:42:30;19.80;;;8.10;;
60169;SDS011;46042;49.444;6.862;2024-01-15T04:44:57;26.10;;;9.73;;
60169;SDS011;46042;49.444;6.862;2024-01-15T04:47:24;16.33;;;6.90;;
60169;SDS011;46042;49.444;6.862;2024-01-15T04:49:51;21.33;;;7.80;;
60169;SDS011;46042;49.444;6.862;2024-01-15T04:52:18;21.20;;;9.07;;
60169;SDS011;46042;49.444;6.862;2024-01-15T04:54:45;23.27;;;8.37;;
60169;SDS011;46042;49.444;6.862;2024-01-15T04:57:12;17.33;;;8.83;;
60169;SDS011;46042;49.444;6.862;2024-01-15T04:59:39;15.27;;;7.53;;
60169;SDS011;46042;49.444;6.862;2024-01-15T05:02:06;23.87;;;8.87;;
60169;SDS011;46042;49.444;6.862;2024-01-15T05:04:33;17.53;;;7.00;;
60169;SDS011;46042;49.444;6.862;2024-01-15T05:07:00;18.27;;;8.00;;
60169;SDS011;46042;49.444;6.862;2024-01-15T05:09:27;20.07;;;9.87;;
60169;SDS011;46042;49.444;6.862;2024-01-15T05:14:25;13.87;;;7.57;;
60169;SDS011;46042;49.444;6.862;2024-01-15T05:16:52;15.20;;;7.67;;
60169;SDS011;46042;49.444;6.862;2024-01-15T05:19:18;20.37;;;8.00;;
60169;SDS011;46042;49.444;6.862;2024-01-15T05:21:45;16.50;;;8.10;;
60169;SDS011;46042;49.444;6.862;2024-01-15T05:24:12;19.33;;;8.23;;
60169;SDS011;46042;49.444;6.862;2024-01-15T05:26:39;18.83;;;8.87;;
60169;SDS011;46042;49.444;6.862;2024-01-15T05:29:06;21.60;;;8.83;;
60169;SDS011;46042;49.444;6.862;2024-01-15T05:31:33;21.50;;;8.27;;
60169;SDS011;46042;49.444;6.862;2024-01-15T05:34:00;22.30;;;10.07;;
60169;SDS011;46042;49.444;6.862;2024-01-15T05:36:27;20.13;;;8.30;;
60169;SDS011;46042;49.444;6.862;2024-01-15T05:38:54;23.10;;;8.00;;
60169;SDS011;46042;49.444;6.862;2024-01-15T05:41:21;15.33;;;7.67;;
60169;SDS011;46042;49.444;6.862;2024-01-15T05:43:47;16.70;;;8.27;;
60169;SDS011;46042;49.444;6.862;2024-01-15T05:46:14;19.60;;;8.57;;
60169;SDS011;46042;49.444;6.862;2024-01-15T05:48:42;20.17;;;8.73;;
60169;SDS011;46042;49.444;6.862;2024-01-15T05:51:09;22.10;;;9.50;;
60169;SDS011;46042;49.444;6.862;2024-01-15T05:53:36;19.70;;;8.27;;
60169;SDS011;46042;49.444;6.862;2024-01-15T05:56:06;16.97;;;8.27;;
60169;SDS011;46042;49.444;6.862;2024-01-15T05:58:33;26.77;;;9.10;;
60169;SDS011;46042;49.444;6.862;2024-01-15T06:01:00;17.50;;;7.83;;
60169;SDS011;46042;49.444;6.862;2024-01-15T06:03:27;21.13;;;9.80;;
60169;SDS011;46042;49.444;6.862;2024-01-15T06:05:54;18.87;;;9.27;;
60169;SDS011;46042;49.444;6.862;2024-01-15T06:08:20;28.47;;;10.83;;
60169;SDS011;46042;49.444;6.862;2024-01-15T06:10:47;18.20;;;9.37;;
60169;SDS011;46042;49.444;6.862;2024-01-15T06:13:14;19.43;;;8.73;;
60169;SDS011;46042;49.444;6.862;2024-01-15T06:15:41;13.03;;;7.67;;
60169;SDS011;46042;49.444;6.862;2024-01-15T06:18:08;23.00;;;8.60;;
60169;SDS011;46042;49.444;6.862;2024-01-15T06:20:35;13.87;;;8.50;;
60169;SDS011;46042;49.444;6.862;2024-01-15T06:23:01;20.03;;;8.07;;
60169;SDS011;46042;49.444;6.862;2024-01-15T06:25:28;16.83;;;8.83;;
60169;SDS011;46042;49.444;6.862;2024-01-15T06:27:55;18.53;;;7.53;;
60169;SDS011;46042;49.444;6.862;2024-01-15T06:30:22;18.07;;;7.43;;
60169;SDS011;46042;49.444;6.862;2024-01-15T06:32:49;15.83;;;7.77;;
60169;SDS011;46042;49.444;6.862;2024-01-15T06:35:17;11.67;;;7.53;;
60169;SDS011;46042;49.444;6.862;2024-01-15T06:37:48;16.57;;;7.90;;
60169;SDS011;46042;49.444;6.862;2024-01-15T06:40:15;18.23;;;8.83;;
60169;SDS011;46042;49.444;6.862;2024-01-15T06:42:42;17.50;;;9.60;;
60169;SDS011;46042;49.444;6.862;2024-01-15T06:45:09;20.17;;;9.40;;
60169;SDS011;46042;49.444;6.862;2024-01-15T06:47:36;18.07;;;8.50;;
60169;SDS011;46042;49.444;6.862;2024-01-15T06:50:03;27.03;;;10.60;;
60169;SDS011;46042;49.444;6.862;2024-01-15T06:52:31;21.83;;;10.33;;
60169;SDS011;46042;49.444;6.862;2024-01-15T06:54:58;17.00;;;8.33;;
60169;SDS011;46042;49.444;6.862;2024-01-15T06:57:25;20.17;;;8.80;;
60169;SDS011;46042;49.444;6.862;2024-01-15T06:59:51;21.80;;;9.83;;
60169;SDS011;46042;49.444;6.862;2024-01-15T07:02:18;19.23;;;10.20;;
60169;SDS011;46042;49.444;6.862;2024-01-15T07:04:45;18.33;;;9.43;;
60169;SDS011;46042;49.444;6.862;2024-01-15T07:07:12;38.77;;;8.03;;
60169;SDS011;46042;49.444;6.862;2024-01-15T07:09:39;18.23;;;8.73;;
60169;SDS011;46042;49.444;6.862;2024-01-15T07:12:05;23.47;;;10.93;;
60169;SDS011;46042;49.444;6.862;2024-01-15T07:14:32;18.13;;;9.03;;
60169;SDS011;46042;49.444;6.862;2024-01-15T07:16:59;21.13;;;11.53;;
60169;SDS011;46042;49.444;6.862;2024-01-15T07:19:26;24.10;;;9.80;;
60169;SDS011;46042;49.444;6.862;2024-01-15T07:21:53;26.33;;;10.07;;
60169;SDS011;46042;49.444;6.862;2024-01-15T07:24:22;20.03;;;8.57;;
60169;SDS011;46042;49.444;6.862;2024-01-15T07:26:49;22.70;;;9.53;;
60169;SDS011;46042;49.444;6.862;2024-01-15T07:29:16;20.17;;;8.90;;
60169;SDS011;46042;49.444;6.862;2024-01-15T07:31:52;19.23;;;8.97;;
60169;SDS011;46042;49.444;6.862;2024-01-15T07:34:20;21.53;;;9.67;;
60169;SDS011;46042;49.444;6.862;2024-01-15T07:36:47;20.90;;;9.37;;
60169;SDS011;46042;49.444;6.862;2024-01-15T07:39:14;16.97;;;8.87;;
60169;SDS011;46042;49.444;6.862;2024-01-15T07:41:41;22.17;;;9.90;;
60169;SDS011;46042;49.444;6.862;2024-01-15T07:44:08;19.73;;;9.17;;
60169;SDS011;46042;49.444;6.862;2024-01-15T07:46:34;25.30;;;10.23;;
60169;SDS011;46042;49.444;6.862;2024-01-15T07:49:01;33.00;;;9.83;;
60169;SDS011;46042;49.444;6.862;2024-01-15T07:51:30;25.83;;;10.73;;
60169;SDS011;46042;49.444;6.862;2024-01-15T07:53:57;27.53;;;12.17;;
60169;SDS011;46042;49.444;6.862;2024-01-15T07:56:24;33.33;;;12.90;;
60169;SDS011;46042;49.444;6.862;2024-01-15T07:58:50;23.90;;;9.70;;
60169;SDS011;46042;49.444;6.862;2024-01-15T08:01:17;21.03;;;9.77;;
60169;SDS011;46042;49.444;6.862;2024-01-15T08:03:44;23.53;;;9.33;;
60169;SDS011;46042;49.444;6.862;2024-01-15T08:06:11;17.17;;;8.23;;
60169;SDS011;46042;49.444;6.862;2024-01-15T08:08:38;28.47;;;10.63;;
60169;SDS011;46042;49.444;6.862;2024-01-15T08:11:05;21.67;;;9.87;;
60169;SDS011;46042;49.444;6.862;2024-01-15T08:13:32;21.33;;;9.47;;
60169;SDS011;46042;49.444;6.862;2024-01-15T08:15:59;17.57;;;9.03;;
60169;SDS011;46042;49.444;6.862;2024-01-15T08:18:26;19.80;;;9.57;;
60169;SDS011;46042;49.444;6.862;2024-01-15T08:20:53;21.07;;;9.03;;
60169;SDS011;46042;49.444;6.862;2024-01-15T08:23:20;18.43;;;8.87;;
60169;SDS011;46042;49.444;6.862;2024-01-15T08:25:48;28.07;;;11.60;;
60169;SDS011;46042;49.444;6.862;2024-01-15T08:28:15;26.07;;;12.07;;
60169;SDS011;46042;49.444;6.862;2024-01-15T08:30:41;26.27;;;11.30;;
60169;SDS011;46042;49.444;6.862;2024-01-15T08:33:09;67.40;;;24.80;;
60169;SDS011;46042;49.444;6.862;2024-01-15T08:35:46;57.10;;;22.07;;
60169;SDS011;46042;49.444;6.862;2024-01-15T08:38:13;36.50;;;15.50;;
60169;SDS011;46042;49.444;6.862;2024-01-15T08:56:02;15.67;;;6.87;;
60169;SDS011;46042;49.444;6.862;2024-01-15T08:58:29;18.70;;;8.93;;
60169;SDS011;46042;49.444;6.862;2024-01-15T09:00:58;19.63;;;9.17;;
60169;SDS011;46042;49.444;6.862;2024-01-15T09:03:25;19.37;;;10.00;;
60169;SDS011;46042;49.444;6.862;2024-01-15T09:05:52;30.03;;;12.63;;
60169;SDS011;46042;49.444;6.862;2024-01-15T09:08:19;23.73;;;9.43;;
60169;SDS011;46042;49.444;6.862;2024-01-15T09:10:46;21.73;;;12.27;;
60169;SDS011;46042;49.444;6.862;2024-01-15T09:13:13;32.43;;;14.73;;
60169;SDS011;46042;49.444;6.862;2024-01-15T09:15:40;26.93;;;10.57;;
60169;SDS011;46042;49.444;6.862;2024-01-15T09:18:07;21.40;;;10.50;;
60169;SDS011;46042;49.444;6.862;2024-01-15T09:20:34;20.40;;;9.40;;
60169;SDS011;46042;49.444;6.862;2024-01-15T09:23:02;20.43;;;9.57;;
60169;SDS011;46042;49.444;6.862;2024-01-15T09:25:29;22.27;;;10.13;;
60169;SDS011;46042;49.444;6.862;2024-01-15T09:27:56;17.70;;;9.00;;
60169;SDS011;46042;49.444;6.862;2024-01-15T09:30:23;19.87;;;8.30;;
60169;SDS011;46042;49.444;6.862;2024-01-15T09:32:50;18.23;;;8.13;;
60169;SDS011;46042;49.444;6.862;2024-01-15T09:35:17;15.40;;;8.30;;
60169;SDS011;46042;49.444;6.862;2024-01-15T09:37:47;22.53;;;8.67;;
60169;SDS011;46042;49.444;6.862;2024-01-15T09:40:14;19.73;;;9.13;;
60169;SDS011;46042;49.444;6.862;2024-01-15T09:42:42;20.10;;;9.30;;
60169;SDS011;46042;49.444;6.862;2024-01-15T09:45:10;15.17;;;8.10;;
60169;SDS011;46042;49.444;6.862;2024-01-15T09:47:38;21.27;;;8.67;;
60169;SDS011;46042;49.444;6.862;2024-01-15T09:50:11;16.63;;;7.17;;
60169;SDS011;46042;49.444;6.862;2024-01-15T09:52:42;11.40;;;5.33;;
60169;SDS011;46042;49.444;6.862;2024-01-15T09:55:09;18.47;;;7.80;;
60169;SDS011;46042;49.444;6.862;2024-01-15T09:57:38;15.43;;;6.63;;
60169;SDS011;46042;49.444;6.862;2024-01-15T10:00:06;22.37;;;8.23;;
60169;SDS011;46042;49.444;6.862;2024-01-15T10:02:37;15.87;;;7.70;;
60169;SDS011;46042;49.444;6.862;2024-01-15T10:05:15;16.33;;;6.90;;
60169;SDS011;46042;49.444;6.862;2024-01-15T10:07:49;14.30;;;7.70;;
60169;SDS011;46042;49.444;6.862;2024-01-15T10:10:20;16.05;;;7.28;;
60169;SDS011;46042;49.444;6.862;2024-01-15T10:12:50;15.73;;;8.03;;
60169;SDS011;46042;49.444;6.862;2024-01-15T10:15:21;20.47;;;8.13;;
60169;SDS011;46042;49.444;6.862;2024-01-15T10:17:50;15.30;;;7.17;;
60169;SDS011;46042;49.444;6.862;2024-01-15T10:20:20;16.98;;;7.57;;
60169;SDS011;46042;49.444;6.862;2024-01-15T10:22:50;13.53;;;7.57;;
60169;SDS011;46042;49.444;6.862;2024-01-15T10:25:17;14.87;;;7.53;;
60169;SDS011;46042;49.444;6.862;2024-01-15T10:28:00;16.87;;;7.73;;
60169;SDS011;46042;49.444;6.862;2024-01-15T10:30:29;17.73;;;8.03;;
60169;SDS011;46042;49.444;6.862;2024-01-15T10:33:01;22.07;;;9.83;;
60169;SDS011;46042;49.444;6.862;2024-01-15T10:35:30;16.70;;;7.77;;
60169;SDS011;46042;49.444;6.862;2024-01-15T10:37:59;14.73;;;7.13;;
60169;SDS011;46042;49.444;6.862;2024-01-15T10:40:27;13.83;;;6.97;;
60169;SDS011;46042;49.444;6.862;2024-01-15T10:42:55;12.40;;;6.40;;
60169;SDS011;46042;49.444;6.862;2024-01-15T10:45:22;8.77;;;5.10;;
60169;SDS011;46042;49.444;6.862;2024-01-15T10:47:49;10.63;;;6.10;;
60169;SDS011;46042;49.444;6.862;2024-01-15T10:50:16;12.57;;;6.23;;
60169;SDS011;46042;49.444;6.862;2024-01-15T10:52:43;12.97;;;5.97;;
60169;SDS011;46042;49.444;6.862;2024-01-15T10:55:10;15.17;;;5.47;;
60169;SDS011;46042;49.444;6.862;2024-01-15T10:57:44;12.47;;;6.13;;
60169;SDS011;46042;49.444;6.862;2024-01-15T11:00:14;13.60;;;7.10;;
60169;SDS011;46042;49.444;6.862;2024-01-15T11:02:42;15.53;;;6.77;;
60169;SDS011;46042;49.444;6.862;2024-01-15T11:05:09;14.73;;;6.83;;
60169;SDS011;46042;49.444;6.862;2024-01-15T11:07:36;10.53;;;5.57;;
60169;SDS011;46042;49.444;6.862;2024-01-15T11:10:06;19.15;;;7.18;;
60169;SDS011;46042;49.444;6.862;2024-01-15T11:12:36;18.67;;;7.05;;
60169;SDS011;46042;49.444;6.862;2024-01-15T11:15:07;10.60;;;5.90;;
60169;SDS011;46042;49.444;6.862;2024-01-15T11:22:54;11.13;;;5.73;;
60169;SDS011;46042;49.444;6.862;2024-01-15T11:25:23;8.90;;;5.70;;
60169;SDS011;46042;49.444;6.862;2024-01-15T11:27:51;11.47;;;5.97;;
60169;SDS011;46042;49.444;6.862;2024-01-15T11:30:20;10.23;;;6.20;;
60169;SDS011;46042;49.444;6.862;2024-01-15T11:32:52;9.63;;;5.03;;
60169;SDS011;46042;49.444;6.862;2024-01-15T11:35:19;12.17;;;6.20;;
60169;SDS011;46042;49.444;6.862;2024-01-15T11:43:00;9.23;;;5.40;;
60169;SDS011;46042;49.444;6.862;2024-01-15T11:45:27;11.73;;;5.57;;
60169;SDS011;46042;49.444;6.862;2024-01-15T11:50:41;9.43;;;5.40;;
60169;SDS011;46042;49.444;6.862;2024-01-15T11:53:17;13.73;;;5.60;;
60169;SDS011;46042;49.444;6.862;2024-01-15T11:55:47;10.20;;;6.30;;
60169;SDS011;46042;49.444;6.862;2024-01-15T11:58:17;10.20;;;5.83;;
60169;SDS011;46042;49.444;6.862;2024-01-15T12:00:45;11.10;;;5.47;;
60169;SDS011;46042;49.444;6.862;2024-01-15T12:03:16;16.77;;;6.93;;
60169;SDS011;46042;49.444;6.862;2024-01-15T12:05:43;8.33;;;4.70;;
60169;SDS011;46042;49.444;6.862;2024-01-15T12:08:10;11.57;;;5.20;;
60169;SDS011;46042;49.444;6.862;2024-01-15T12:10:38;12.60;;;6.20;;
60169;SDS011;46042;49.444;6.862;2024-01-15T12:13:12;12.40;;;5.88;;
60169;SDS011;46042;49.444;6.862;2024-01-15T12:15:40;9.67;;;5.43;;
60169;SDS011;46042;49.444;6.862;2024-01-15T12:20:39;12.73;;;5.33;;
60169;SDS011;46042;49.444;6.862;2024-01-15T12:23:06;10.20;;;5.47;;
60169;SDS011;46042;49.444;6.862;2024-01-15T12:25:35;11.07;;;5.97;;
60169;SDS011;46042;49.444;6.862;2024-01-15T12:28:03;8.20;;;4.97;;
60169;SDS011;46042;49.444;6.862;2024-01-15T12:30:32;8.87;;;5.03;;
60169;SDS011;46042;49.444;6.862;2024-01-15T12:33:04;11.80;;;5.53;;
60169;SDS011;46042;49.444;6.862;2024-01-15T12:35:33;8.77;;;4.97;;
60169;SDS011;46042;49.444;6.862;2024-01-15T12:38:00;8.87;;;5.67;;
60169;SDS011;46042;49.444;6.862;2024-01-15T12:43:02;8.57;;;5.28;;
60169;SDS011;46042;49.444;6.862;2024-01-15T12:45:29;9.50;;;5.60;;
60169;SDS011;46042;49.444;6.862;2024-01-15T12:47:58;11.13;;;5.60;;
60169;SDS011;46042;49.444;6.862;2024-01-15T12:50:25;10.70;;;5.27;;
60169;SDS011;46042;49.444;6.862;2024-01-15T12:52:52;11.20;;;6.13;;
60169;SDS011;46042;49.444;6.862;2024-01-15T12:55:19;11.43;;;5.50;;
60169;SDS011;46042;49.444;6.862;2024-01-15T12:58:01;14.93;;;4.73;;
60169;SDS011;46042;49.444;6.862;2024-01-15T13:00:28;11.73;;;5.30;;
60169;SDS011;46042;49.444;6.862;2024-01-15T13:02:58;9.50;;;5.57;;
60169;SDS011;46042;49.444;6.862;2024-01-15T13:05:27;8.33;;;4.43;;
60169;SDS011;46042;49.444;6.862;2024-01-15T13:07:56;8.93;;;5.10;;
60169;SDS011;46042;49.444;6.862;2024-01-15T13:10:23;11.23;;;4.93;;
60169;SDS011;46042;49.444;6.862;2024-01-15T13:12:52;9.07;;;4.30;;
60169;SDS011;46042;49.444;6.862;2024-01-15T13:15:22;8.05;;;4.38;;
60169;SDS011;46042;49.444;6.862;2024-01-15T13:17:50;9.00;;;5.07;;
60169;SDS011;46042;49.444;6.862;2024-01-15T13:20:17;8.50;;;4.32;;
60169;SDS011;46042;49.444;6.862;2024-01-15T13:22:45;9.93;;;4.73;;
60169;SDS011;46042;49.444;6.862;2024-01-15T13:25:12;9.47;;;4.73;;
60169;SDS011;46042;49.444;6.862;2024-01-15T13:27:42;11.37;;;4.77;;
60169;SDS011;46042;49.444;6.862;2024-01-15T13:30:10;10.37;;;4.73;;
60169;SDS011;46042;49.444;6.862;2024-01-15T13:32:39;11.70;;;4.70;;
60169;SDS011;46042;49.444;6.862;2024-01-15T13:35:07;9.43;;;4.87;;
60169;SDS011;46042;49.444;6.862;2024-01-15T13:37:36;7.87;;;4.60;;
60169;SDS011;46042;49.444;6.862;2024-01-15T13:40:04;8.23;;;4.07;;
60169;SDS011;46042;49.444;6.862;2024-01-15T13:42:34;9.73;;;5.17;;
60169;SDS011;46042;49.444;6.862;2024-01-15T13:45:01;15.00;;;4.67;;
60169;SDS011;46042;49.444;6.862;2024-01-15T13:47:29;12.63;;;5.07;;
60169;SDS011;46042;49.444;6.862;2024-01-15T13:49:57;11.00;;;5.37;;
60169;SDS011;46042;49.444;6.862;2024-01-15T13:52:25;11.33;;;4.93;;
60169;SDS011;46042;49.444;6.862;2024-01-15T13:54:56;9.10;;;4.37;;
60169;SDS011;46042;49.444;6.862;2024-01-15T13:57:23;14.73;;;5.50;;
60169;SDS011;46042;49.444;6.862;2024-01-15T13:59:50;14.67;;;7.23;;
60169;SDS011;46042;49.444;6.862;2024-01-15T14:02:17;11.50;;;5.00;;
60169;SDS011;46042;49.444;6.862;2024-01-15T14:04:47;10.00;;;4.77;;
60169;SDS011;46042;49.444;6.862;2024-01-15T14:07:15;12.87;;;5.53;;
60169;SDS011;46042;49.444;6.862;2024-01-15T14:09:43;8.80;;;4.83;;
60169;SDS011;46042;49.444;6.862;2024-01-15T14:12:10;8.07;;;4.60;;
60169;SDS011;46042;49.444;6.862;2024-01-15T14:14:38;7.97;;;4.43;;
60169;SDS011;46042;49.444;6.862;2024-01-15T14:17:06;9.93;;;4.40;;
60169;SDS011;46042;49.444;6.862;2024-01-15T14:19:33;6.77;;;3.60;;
60169;SDS011;46042;49.444;6.862;2024-01-15T14:22:00;8.20;;;3.63;;
60169;SDS011;46042;49.444;6.862;2024-01-15T14:24:27;7.03;;;3.97;;
60169;SDS011;46042;49.444;6.862;2024-01-15T14:26:54;8.53;;;3.60;;
60169;SDS011;46042;49.444;6.862;2024-01-15T14:29:21;7.63;;;4.63;;
60169;SDS011;46042;49.444;6.862;2024-01-15T14:31:51;8.73;;;4.20;;
60169;SDS011;46042;49.444;6.862;2024-01-15T14:34:19;8.40;;;4.27;;
60169;SDS011;46042;49.444;6.862;2024-01-15T14:36:48;7.47;;;3.87;;
60169;SDS011;46042;49.444;6.862;2024-01-15T14:39:16;11.50;;;4.37;;
60169;SDS011;46042;49.444;6.862;2024-01-15T14:41:43;7.47;;;3.63;;
60169;SDS011;46042;49.444;6.862;2024-01-15T14:44:09;6.67;;;3.37;;
60169;SDS011;46042;49.444;6.862;2024-01-15T14:46:38;7.30;;;3.53;;
60169;SDS011;46042;49.444;6.862;2024-01-15T14:49:05;7.77;;;3.93;;
60169;SDS011;46042;49.444;6.862;2024-01-15T14:51:32;6.07;;;3.30;;
60169;SDS011;46042;49.444;6.862;2024-01-15T14:54:00;7.87;;;2.90;;
60169;SDS011;46042;49.444;6.862;2024-01-15T14:56:29;7.27;;;3.00;;
60169;SDS011;46042;49.444;6.862;2024-01-15T14:58:56;8.90;;;3.43;;
60169;SDS011;46042;49.444;6.862;2024-01-15T15:01:24;7.40;;;2.97;;
60169;SDS011;46042;49.444;6.862;2024-01-15T15:03:52;8.40;;;3.33;;
60169;SDS011;46042;49.444;6.862;2024-01-15T15:06:19;6.87;;;2.90;;
60169;SDS011;46042;49.444;6.862;2024-01-15T15:08:47;8.47;;;3.97;;
60169;SDS011;46042;49.444;6.862;2024-01-15T15:11:15;5.80;;;3.47;;
60169;SDS011;46042;49.444;6.862;2024-01-15T15:13:41;11.37;;;3.03;;